Time;durP1;ratioP1;P1;durP2;ratioP2;P2;SDS_P1;SDS_P2;PMS_P1;PMS_P2;Temp;Humidity;BMP_temperature;BMP_pressure;BME280_temperature;BME280_humidity;BME280_pressure;Samples;Min_cycle;Max_cycle;Signal;HPM_P1;HPM_P2
2022/08/16 00:01:21;;;;;;;2.40;2.30;;;18.10;99.90;;;;;;5026374;28;20189;-78
2022/08/16 00:03:47;;;;;;;2.88;2.60;;;17.90;99.90;;;;;;5023093;28;20224;-78
2022/08/16 00:06:12;;;;;;;3.05;2.88;;;17.80;99.90;;;;;;5021473;28;20654;-78
2022/08/16 00:08:38;;;;;;;2.65;2.50;;;17.80;99.90;;;;;;5030556;28;20256;-78
2022/08/16 00:11:10;;;;;;;3.33;2.45;;;17.70;99.90;;;;;;5033878;28;20219;-78
2022/08/16 00:13:36;;;;;;;3.20;2.72;;;17.60;99.90;;;;;;5027749;28;20192;-78
2022/08/16 00:16:03;;;;;;;2.90;2.70;;;17.60;99.90;;;;;;5024131;28;20201;-78
2022/08/16 00:18:28;;;;;;;2.97;2.83;;;17.50;99.90;;;;;;5026222;28;20185;-78
2022/08/16 00:20:54;;;;;;;4.05;2.40;;;17.40;99.90;;;;;;5033940;28;20702;-78
2022/08/16 00:23:20;;;;;;;2.90;2.70;;;17.40;99.90;;;;;;5026787;28;20272;-78
2022/08/16 00:25:46;;;;;;;3.05;2.80;;;17.30;99.90;;;;;;5024331;28;20212;-78
2022/08/16 00:28:12;;;;;;;2.95;2.80;;;17.30;99.90;;;;;;5030034;28;20219;-78
2022/08/16 00:30:38;;;;;;;2.83;2.63;;;17.30;99.90;;;;;;5032520;28;20188;-77
2022/08/16 00:33:04;;;;;;;3.38;2.97;;;17.20;99.90;;;;;;5033203;28;20188;-77
2022/08/16 00:35:33;;;;;;;3.60;3.05;;;17.20;99.90;;;;;;5027489;28;20538;-77
2022/08/16 00:38:01;;;;;;;3.40;2.85;;;17.20;99.90;;;;;;5031292;28;20180;-77
2022/08/16 00:40:41;;;;;;;3.72;3.20;;;17.20;99.90;;;;;;5032358;28;20785;-77
2022/08/16 00:43:12;;;;;;;3.03;2.83;;;17.10;99.90;;;;;;5025100;28;20195;-77
2022/08/16 00:45:43;;;;;;;3.03;2.83;;;17.10;99.90;;;;;;5024893;28;20201;-77
2022/08/16 00:48:12;;;;;;;3.20;3.00;;;17.10;99.90;;;;;;5028812;28;20205;-77
2022/08/16 00:50:39;;;;;;;2.95;2.75;;;17.00;99.90;;;;;;5030656;28;20173;-77
2022/08/16 00:53:07;;;;;;;4.63;3.35;;;17.10;99.90;;;;;;5027839;28;20228;-77
2022/08/16 00:55:34;;;;;;;3.60;3.08;;;17.10;99.90;;;;;;5031250;28;20184;-78
2022/08/16 00:58:00;;;;;;;3.55;3.25;;;17.00;99.90;;;;;;5027378;28;20173;-78
2022/08/16 01:00:29;;;;;;;3.40;3.13;;;17.10;99.90;;;;;;5030744;28;20184;-77
2022/08/16 01:02:57;;;;;;;3.30;3.10;;;17.10;99.90;;;;;;5016935;28;20714;-77
2022/08/16 01:05:24;;;;;;;3.33;3.03;;;17.10;99.90;;;;;;5026614;28;20291;-77
2022/08/16 01:07:51;;;;;;;4.05;3.75;;;17.00;99.90;;;;;;5032980;28;20189;-77
2022/08/16 01:10:16;;;;;;;3.55;3.35;;;17.00;99.90;;;;;;5029923;28;20244;-77
2022/08/16 01:12:42;;;;;;;4.03;3.33;;;17.00;99.90;;;;;;5020788;28;20227;-78
2022/08/16 01:15:09;;;;;;;4.57;2.88;;;16.90;99.90;;;;;;5029178;28;20263;-77
2022/08/16 01:17:37;;;;;;;3.25;3.00;;;16.90;99.90;;;;;;5029942;28;20217;-77
2022/08/16 01:20:09;;;;;;;3.38;3.08;;;16.90;99.90;;;;;;5025131;28;20231;-77
2022/08/16 01:22:42;;;;;;;3.28;2.97;;;16.90;99.90;;;;;;5031602;28;20208;-77
2022/08/16 01:25:12;;;;;;;2.83;2.63;;;17.00;99.90;;;;;;5031338;28;20209;-77
2022/08/16 01:27:53;;;;;;;3.22;3.03;;;16.90;99.90;;;;;;5027830;28;20201;-77
2022/08/16 01:30:24;;;;;;;4.00;3.15;;;16.90;99.90;;;;;;5025202;28;20181;-77
2022/08/16 01:32:51;;;;;;;3.38;3.08;;;16.80;99.90;;;;;;5032234;28;20176;-77
2022/08/16 01:35:41;;;;;;;3.25;3.05;;;16.70;99.90;;;;;;5031026;28;20204;-77
2022/08/16 01:38:35;;;;;;;3.95;3.20;;;16.70;99.90;;;;;;5022977;28;20268;-76
2022/08/16 01:41:16;;;;;;;3.92;3.40;;;16.70;99.90;;;;;;5021643;28;20196;-76
2022/08/16 01:43:44;;;;;;;4.43;3.30;;;16.70;99.90;;;;;;5028521;28;20184;-77
2022/08/16 01:46:21;;;;;;;3.60;3.33;;;16.70;99.90;;;;;;5022467;28;20201;-77
2022/08/16 01:48:47;;;;;;;3.33;3.10;;;16.70;99.90;;;;;;5025472;28;20284;-77
2022/08/16 01:51:15;;;;;;;3.63;3.35;;;16.70;99.90;;;;;;5028534;28;20251;-78
2022/08/16 01:53:41;;;;;;;3.35;3.15;;;16.70;99.90;;;;;;5023320;28;20596;-78
2022/08/16 01:56:08;;;;;;;3.80;3.50;;;16.70;99.90;;;;;;5021101;28;20201;-78
2022/08/16 01:58:34;;;;;;;3.38;3.17;;;16.80;99.90;;;;;;5028418;28;20184;-78
2022/08/16 02:00:59;;;;;;;4.45;3.35;;;16.80;99.90;;;;;;5024320;28;20193;-79
2022/08/16 02:03:25;;;;;;;3.53;3.33;;;16.70;99.90;;;;;;5019240;28;20186;-77
2022/08/16 02:05:50;;;;;;;4.03;3.65;;;16.70;99.90;;;;;;5023502;28;20223;-77
2022/08/16 02:09:09;;;;;;;3.58;3.10;;;16.70;99.90;;;;;;5023850;28;20224;-78
2022/08/16 02:11:36;;;;;;;3.70;3.40;;;16.70;99.90;;;;;;5022618;28;20655;-77
2022/08/16 02:14:02;;;;;;;3.60;3.22;;;16.70;99.90;;;;;;5025148;28;20225;-78
2022/08/16 02:16:28;;;;;;;3.45;3.20;;;16.70;99.90;;;;;;5024672;28;20197;-78
2022/08/16 02:18:53;;;;;;;3.88;3.58;;;16.70;99.90;;;;;;5030603;28;20323;-78
2022/08/16 02:21:19;;;;;;;3.53;3.30;;;16.80;99.90;;;;;;5031964;28;20509;-78
2022/08/16 02:23:45;;;;;;;3.53;3.22;;;16.80;99.90;;;;;;5029183;28;20176;-78
2022/08/16 02:26:11;;;;;;;3.78;3.47;;;16.80;99.90;;;;;;5026582;28;20216;-78
2022/08/16 02:28:37;;;;;;;3.58;3.28;;;16.80;99.90;;;;;;5022837;28;20173;-78
2022/08/16 02:31:07;;;;;;;4.38;3.97;;;16.70;99.90;;;;;;5025918;28;20315;-77
2022/08/16 02:33:33;;;;;;;3.40;3.20;;;16.70;99.90;;;;;;5031981;28;20192;-77
2022/08/16 02:35:58;;;;;;;4.22;3.50;;;16.60;99.90;;;;;;5028771;28;20722;-77
2022/08/16 02:38:26;;;;;;;3.78;3.58;;;16.70;99.90;;;;;;5026876;28;20180;-76
2022/08/16 02:40:53;;;;;;;6.03;3.72;;;16.60;99.90;;;;;;5028198;28;20196;-76
2022/08/16 02:43:18;;;;;;;4.35;4.00;;;16.60;99.90;;;;;;5025847;28;20183;-76
2022/08/16 02:45:44;;;;;;;4.07;3.58;;;16.60;99.90;;;;;;5022258;28;20204;-76
2022/08/16 02:48:10;;;;;;;3.72;3.42;;;16.60;99.90;;;;;;5029802;28;20176;-76
2022/08/16 02:50:36;;;;;;;3.45;3.25;;;16.60;99.90;;;;;;5033926;28;20188;-76
2022/08/16 02:53:01;;;;;;;3.72;3.45;;;16.60;99.90;;;;;;5025386;28;20200;-76
2022/08/16 02:55:27;;;;;;;4.00;3.60;;;16.60;99.90;;;;;;5023420;28;20185;-76
2022/08/16 02:57:53;;;;;;;3.42;3.17;;;16.50;99.90;;;;;;5026942;28;20258;-76
2022/08/16 03:00:18;;;;;;;3.58;3.28;;;16.50;99.90;;;;;;5030073;28;20214;-75
2022/08/16 03:02:44;;;;;;;3.80;3.53;;;16.50;99.90;;;;;;5031894;28;20657;-75
2022/08/16 03:05:12;;;;;;;4.03;3.60;;;16.50;99.90;;;;;;5024155;28;20247;-76
2022/08/16 03:07:38;;;;;;;3.85;3.58;;;16.50;99.90;;;;;;5029876;28;20648;-75
2022/08/16 03:10:07;;;;;;;3.80;3.50;;;16.50;99.90;;;;;;5012142;28;20239;-76
2022/08/16 03:12:33;;;;;;;4.10;3.65;;;16.50;99.90;;;;;;5022341;28;20223;-76
2022/08/16 03:14:59;;;;;;;3.97;3.63;;;16.50;99.90;;;;;;5019629;28;20189;-76
2022/08/16 03:17:25;;;;;;;4.07;3.70;;;16.40;99.90;;;;;;5015688;28;20217;-76
2022/08/16 03:19:52;;;;;;;4.88;3.58;;;16.40;99.90;;;;;;5023590;28;20237;-76
2022/08/16 03:22:19;;;;;;;4.10;3.80;;;16.40;99.90;;;;;;5017083;28;20172;-76
2022/08/16 03:24:45;;;;;;;3.92;3.63;;;16.30;99.90;;;;;;5019796;28;20710;-76
2022/08/16 03:27:11;;;;;;;5.22;3.60;;;16.20;99.90;;;;;;5016135;28;20243;-76
2022/08/16 03:29:37;;;;;;;3.80;3.50;;;16.20;99.90;;;;;;5018415;28;20170;-76
2022/08/16 03:32:04;;;;;;;6.40;4.38;;;16.20;99.90;;;;;;5017007;28;20274;-76
2022/08/16 03:34:34;;;;;;;4.90;4.40;;;16.20;99.90;;;;;;5021411;28;20264;-76
2022/08/16 03:37:00;;;;;;;3.97;3.65;;;16.20;99.90;;;;;;5019082;28;20199;-76
2022/08/16 03:39:27;;;;;;;4.90;4.28;;;16.20;99.90;;;;;;5014998;28;20178;-77
2022/08/16 03:41:52;;;;;;;5.45;3.67;;;16.20;99.90;;;;;;5044073;28;20549;-77
2022/08/16 03:44:18;;;;;;;4.25;3.90;;;16.30;99.90;;;;;;5022728;28;20177;-77
2022/08/16 03:46:44;;;;;;;4.60;4.18;;;16.20;99.90;;;;;;5026725;28;20205;-78
2022/08/16 03:49:11;;;;;;;4.72;4.32;;;16.20;99.90;;;;;;5019593;28;20200;-77
2022/08/16 03:51:38;;;;;;;7.15;4.38;;;16.20;99.90;;;;;;5031440;28;20176;-77
2022/08/16 03:54:04;;;;;;;4.90;4.45;;;16.20;99.90;;;;;;5030509;28;20180;-77
2022/08/16 03:56:30;;;;;;;4.95;3.70;;;16.10;99.90;;;;;;5024283;28;20209;-77
2022/08/16 03:58:56;;;;;;;6.40;3.97;;;16.20;99.90;;;;;;5024041;28;20245;-77
2022/08/16 04:01:23;;;;;;;5.25;4.40;;;16.20;99.90;;;;;;5032511;28;20682;-77
2022/08/16 04:03:50;;;;;;;6.47;4.20;;;16.20;99.90;;;;;;5024739;28;20723;-77
2022/08/16 04:06:16;;;;;;;4.38;3.97;;;16.10;99.90;;;;;;5026978;28;20204;-76
2022/08/16 04:08:42;;;;;;;4.70;4.20;;;16.10;99.90;;;;;;5024592;28;20181;-76
2022/08/16 04:11:07;;;;;;;4.00;3.70;;;16.10;99.90;;;;;;5019670;28;20269;-76
2022/08/16 04:13:33;;;;;;;4.30;3.75;;;16.00;99.90;;;;;;5018337;28;20196;-76
2022/08/16 04:16:01;;;;;;;4.32;4.03;;;16.10;99.90;;;;;;5015612;28;20595;-76
2022/08/16 04:18:27;;;;;;;4.40;4.00;;;16.10;99.90;;;;;;5016509;28;20686;-77
2022/08/16 04:20:53;;;;;;;4.10;3.80;;;16.10;99.90;;;;;;5020028;28;20648;-76
2022/08/16 04:23:20;;;;;;;4.40;4.00;;;16.10;99.90;;;;;;5023340;28;20181;-76
2022/08/16 04:25:45;;;;;;;5.15;4.22;;;16.10;99.90;;;;;;5029524;28;20295;-77
2022/08/16 04:28:12;;;;;;;4.18;3.83;;;16.10;99.90;;;;;;5025972;28;20268;-76
2022/08/16 04:30:38;;;;;;;6.18;4.55;;;16.10;99.90;;;;;;5025418;28;20173;-75
2022/08/16 04:33:04;;;;;;;4.57;4.18;;;16.10;99.90;;;;;;5029596;28;20204;-77
2022/08/16 04:35:31;;;;;;;4.30;3.90;;;16.20;99.90;;;;;;5029763;28;20276;-76
2022/08/16 04:37:57;;;;;;;4.80;4.25;;;16.20;99.90;;;;;;5025868;28;20253;-75
2022/08/16 04:40:24;;;;;;;4.80;4.40;;;16.20;99.90;;;;;;5030194;28;20184;-76
2022/08/16 04:42:50;;;;;;;4.57;4.18;;;16.20;99.90;;;;;;5029651;28;20212;-76
2022/08/16 04:45:16;;;;;;;5.82;4.55;;;16.20;99.90;;;;;;5029809;28;20211;-76
2022/08/16 04:47:43;;;;;;;4.80;4.40;;;16.30;99.90;;;;;;5030279;28;20273;-76
2022/08/16 04:50:14;;;;;;;4.68;4.30;;;16.30;99.90;;;;;;5027940;28;20184;-76
2022/08/16 04:52:41;;;;;;;4.97;4.35;;;16.30;99.90;;;;;;5022546;28;20177;-77
2022/08/16 04:55:10;;;;;;;4.78;4.18;;;16.40;99.90;;;;;;5032061;28;20172;-77
2022/08/16 04:57:36;;;;;;;5.03;4.28;;;16.40;99.90;;;;;;5033938;28;20224;-76
2022/08/16 05:00:04;;;;;;;4.82;4.43;;;16.50;99.90;;;;;;5033936;28;20728;-76
2022/08/16 05:02:29;;;;;;;6.78;5.35;;;16.50;99.90;;;;;;5030795;28;20188;-77
2022/08/16 05:04:55;;;;;;;6.53;4.55;;;16.60;99.90;;;;;;5028397;28;20656;-78
2022/08/16 05:07:20;;;;;;;4.60;4.20;;;16.70;99.90;;;;;;5035019;28;20193;-78
2022/08/16 05:09:46;;;;;;;7.40;4.30;;;16.70;99.90;;;;;;5032715;28;20177;-78
2022/08/16 05:12:12;;;;;;;4.38;3.63;;;16.80;99.90;;;;;;5030977;28;20193;-77
2022/08/16 05:14:37;;;;;;;4.35;3.83;;;16.80;99.90;;;;;;5032673;28;20189;-76
2022/08/16 05:17:03;;;;;;;4.88;4.05;;;16.90;99.90;;;;;;5062233;28;20272;-78
2022/08/16 05:19:28;;;;;;;4.40;4.00;;;17.00;99.90;;;;;;5036466;28;20169;-80
2022/08/16 05:21:54;;;;;;;4.22;3.92;;;17.10;99.90;;;;;;5036456;28;20733;-79
2022/08/16 05:24:20;;;;;;;4.28;3.97;;;17.10;99.90;;;;;;5028771;28;20177;-80
2022/08/16 05:26:45;;;;;;;4.05;3.72;;;17.20;99.90;;;;;;5031397;28;20207;-78
2022/08/16 05:29:11;;;;;;;4.35;3.88;;;17.30;99.90;;;;;;5033307;28;20180;-78
2022/08/16 05:31:37;;;;;;;5.38;4.22;;;17.40;99.90;;;;;;5035652;28;20179;-79
2022/08/16 05:34:03;;;;;;;4.20;3.90;;;17.50;99.90;;;;;;5037348;28;20172;-79
2022/08/16 05:36:29;;;;;;;5.03;4.18;;;17.50;99.90;;;;;;5042228;28;20200;-78
2022/08/16 05:38:54;;;;;;;4.75;4.07;;;17.60;99.90;;;;;;5044072;28;20191;-80
2022/08/16 05:41:20;;;;;;;4.10;3.80;;;17.70;99.90;;;;;;5034765;28;20181;-78
2022/08/16 05:43:46;;;;;;;4.78;4.20;;;17.80;99.90;;;;;;5030640;28;20218;-79
2022/08/16 05:46:16;;;;;;;3.78;3.47;;;17.90;99.90;;;;;;5045194;28;20698;-77
2022/08/16 05:48:43;;;;;;;3.95;3.65;;;18.00;99.90;;;;;;5041583;28;20175;-78
2022/08/16 05:51:09;;;;;;;3.97;3.38;;;18.20;99.90;;;;;;5035926;28;20176;-78
2022/08/16 05:53:34;;;;;;;4.75;3.90;;;18.30;99.90;;;;;;5042500;28;20177;-78
2022/08/16 05:56:00;;;;;;;3.83;3.33;;;18.40;99.90;;;;;;5039468;28;20200;-78
2022/08/16 05:58:25;;;;;;;5.07;3.33;;;18.50;99.90;;;;;;5037128;28;20619;-81
2022/08/16 06:00:51;;;;;;;4.07;3.67;;;18.60;99.90;;;;;;5033378;28;20200;-77
2022/08/16 06:03:17;;;;;;;3.67;3.38;;;18.70;99.90;;;;;;5040197;28;20249;-79
2022/08/16 06:05:42;;;;;;;3.95;3.50;;;18.80;99.90;;;;;;5040634;28;20238;-78
2022/08/16 06:08:08;;;;;;;3.80;3.50;;;18.80;99.90;;;;;;5044985;28;20179;-77
2022/08/16 06:10:33;;;;;;;2.67;2.55;;;18.90;99.90;;;;;;5030942;28;20573;-77
2022/08/16 06:12:59;;;;;;;3.05;2.85;;;19.00;99.90;;;;;;5040102;28;20210;-76
2022/08/16 06:15:25;;;;;;;3.33;3.10;;;19.10;99.90;;;;;;5046407;28;20681;-78
2022/08/16 06:17:51;;;;;;;4.68;2.72;;;19.10;99.90;;;;;;5041854;28;20856;-78
2022/08/16 06:20:23;;;;;;;3.08;2.88;;;19.20;99.90;;;;;;5039109;28;20180;-78
2022/08/16 06:22:49;;;;;;;3.40;3.20;;;19.30;99.90;;;;;;5032378;28;20180;-79
2022/08/16 06:25:16;;;;;;;3.13;2.88;;;19.30;99.90;;;;;;5041214;28;20200;-78
2022/08/16 06:27:41;;;;;;;3.05;2.83;;;19.50;99.90;;;;;;5044778;28;20195;-77
2022/08/16 06:30:10;;;;;;;5.68;2.83;;;19.50;99.90;;;;;;5024750;28;20185;-77
2022/08/16 06:32:36;;;;;;;4.63;3.00;;;19.60;99.90;;;;;;5019169;28;20283;-77
2022/08/16 06:35:02;;;;;;;4.32;3.25;;;19.80;99.90;;;;;;5032966;28;20648;-78
2022/08/16 06:37:28;;;;;;;2.97;2.80;;;19.80;99.90;;;;;;5026967;28;20520;-75
2022/08/16 06:39:54;;;;;;;3.67;2.75;;;19.90;99.90;;;;;;5012858;28;20311;-77
2022/08/16 06:42:19;;;;;;;3.78;2.83;;;20.00;99.90;;;;;;5012186;28;20519;-76
2022/08/16 06:44:46;;;;;;;3.60;3.13;;;20.10;99.90;;;;;;5031462;28;20527;-77
2022/08/16 06:47:12;;;;;;;4.32;2.85;;;20.20;99.90;;;;;;5032258;28;20223;-76
2022/08/16 06:49:38;;;;;;;3.38;3.17;;;20.30;99.90;;;;;;5027982;28;20189;-76
2022/08/16 06:52:03;;;;;;;3.67;3.38;;;20.30;99.90;;;;;;5031595;28;20188;-76
2022/08/16 06:54:29;;;;;;;3.22;2.92;;;20.40;99.90;;;;;;5033017;28;20172;-77
2022/08/16 06:56:55;;;;;;;2.95;2.75;;;20.50;99.90;;;;;;5031425;28;20197;-75
2022/08/16 06:59:21;;;;;;;2.83;2.63;;;20.60;99.90;;;;;;5013072;28;20184;-76
2022/08/16 07:01:47;;;;;;;2.95;2.75;;;20.60;99.90;;;;;;5032479;28;20173;-76
2022/08/16 07:04:13;;;;;;;3.40;3.10;;;20.70;99.90;;;;;;5033474;28;20167;-75
2022/08/16 07:06:40;;;;;;;2.95;2.75;;;20.80;99.90;;;;;;5024066;28;20204;-76
2022/08/16 07:09:06;;;;;;;3.25;2.95;;;20.80;99.90;;;;;;5017158;28;20173;-77
2022/08/16 07:11:32;;;;;;;2.67;2.47;;;20.80;99.90;;;;;;5023192;28;20180;-78
2022/08/16 07:13:58;;;;;;;3.22;3.03;;;20.90;99.90;;;;;;5032377;28;20188;-77
2022/08/16 07:16:24;;;;;;;3.03;2.92;;;21.00;99.90;;;;;;5026080;28;20205;-76
2022/08/16 07:18:51;;;;;;;2.75;2.65;;;21.10;99.90;;;;;;5025210;28;20185;-76
2022/08/16 07:21:17;;;;;;;3.17;2.97;;;21.20;99.90;;;;;;5031341;28;20173;-78
2022/08/16 07:23:45;;;;;;;3.13;2.85;;;21.30;99.90;;;;;;5041162;28;20557;-78
2022/08/16 07:26:17;;;;;;;3.25;2.95;;;21.50;99.90;;;;;;5018056;28;20208;-75
2022/08/16 07:28:43;;;;;;;2.67;2.58;;;21.60;99.90;;;;;;5029749;28;20393;-74
2022/08/16 07:31:09;;;;;;;6.47;3.30;;;21.70;99.90;;;;;;5029513;28;20164;-75
2022/08/16 07:33:36;;;;;;;3.30;2.65;;;21.80;99.90;;;;;;5017409;28;20263;-72
2022/08/16 07:36:06;;;;;;;2.90;2.60;;;21.90;99.90;;;;;;5011706;28;20247;-71
2022/08/16 07:38:32;;;;;;;3.13;2.92;;;22.00;99.90;;;;;;5011358;28;22156;-71
2022/08/16 07:40:58;;;;;;;2.75;2.60;;;22.00;99.90;;;;;;5012286;28;20173;-71
2022/08/16 07:43:24;;;;;;;3.30;3.03;;;22.10;99.90;;;;;;5026756;28;20237;-71
2022/08/16 07:45:51;;;;;;;2.80;2.50;;;22.00;99.90;;;;;;5042772;28;20191;-72
2022/08/16 07:48:17;;;;;;;2.30;2.20;;;22.10;99.90;;;;;;5034154;28;20189;-72
2022/08/16 07:50:44;;;;;;;2.25;2.15;;;22.10;99.90;;;;;;5017166;28;20173;-72
2022/08/16 07:53:10;;;;;;;2.40;2.20;;;22.20;99.90;;;;;;5031043;28;20169;-72
2022/08/16 07:55:35;;;;;;;3.15;2.47;;;22.30;99.90;;;;;;5031650;28;20230;-73
2022/08/16 07:58:02;;;;;;;2.63;2.42;;;22.40;99.90;;;;;;5025266;28;20280;-72
2022/08/16 08:00:28;;;;;;;2.85;2.65;;;22.40;99.90;;;;;;5030001;28;20176;-73
2022/08/16 08:02:54;;;;;;;2.80;2.60;;;22.50;99.90;;;;;;5031354;28;20241;-74
2022/08/16 08:05:21;;;;;;;2.55;2.35;;;22.50;99.90;;;;;;5030877;28;20204;-73
2022/08/16 08:07:48;;;;;;;2.45;2.25;;;22.50;99.90;;;;;;5022354;28;20203;-73
2022/08/16 08:10:14;;;;;;;2.70;2.50;;;22.60;99.90;;;;;;5030106;28;20238;-72
2022/08/16 08:12:41;;;;;;;2.88;2.67;;;22.60;99.90;;;;;;5029488;28;20184;-72
2022/08/16 08:15:10;;;;;;;2.58;2.38;;;22.70;99.90;;;;;;5031524;28;20183;-74
2022/08/16 08:17:39;;;;;;;2.30;2.10;;;22.80;99.90;;;;;;5025942;28;20576;-76
2022/08/16 08:20:07;;;;;;;2.63;2.42;;;22.90;99.90;;;;;;5011259;28;20178;-75
2022/08/16 08:22:33;;;;;;;3.72;2.75;;;23.00;99.90;;;;;;5026949;28;20185;-71
2022/08/16 08:24:58;;;;;;;2.72;2.53;;;23.10;99.90;;;;;;5030919;28;20219;-71
2022/08/16 08:27:25;;;;;;;2.58;2.38;;;23.20;99.90;;;;;;5038266;28;20679;-71
2022/08/16 08:29:50;;;;;;;2.40;2.30;;;23.30;99.90;;;;;;5036332;28;20169;-71
2022/08/16 08:32:20;;;;;;;2.55;2.45;;;23.30;99.90;;;;;;5040841;28;20171;-71
2022/08/16 08:34:46;;;;;;;3.25;2.55;;;23.30;99.90;;;;;;5042456;28;20231;-71
2022/08/16 08:37:12;;;;;;;2.65;2.45;;;23.40;99.90;;;;;;5036614;28;20208;-73
2022/08/16 08:39:37;;;;;;;2.65;2.45;;;23.50;99.90;;;;;;5039035;28;20265;-73
2022/08/16 08:42:04;;;;;;;4.30;2.67;;;23.60;99.90;;;;;;5045984;28;20188;-72
2022/08/16 08:44:30;;;;;;;2.80;2.63;;;23.60;99.90;;;;;;5042439;28;20176;-73
2022/08/16 08:46:58;;;;;;;2.33;2.20;;;23.70;99.90;;;;;;5036847;28;20216;-73
2022/08/16 08:49:23;;;;;;;3.42;2.45;;;23.80;99.90;;;;;;5033452;28;20176;-73
2022/08/16 08:51:49;;;;;;;2.20;2.10;;;24.00;99.90;;;;;;5038027;28;20561;-73
2022/08/16 08:54:14;;;;;;;2.55;2.40;;;24.00;99.90;;;;;;5035981;28;20208;-73
2022/08/16 08:56:40;;;;;;;2.72;2.35;;;24.20;99.90;;;;;;5033666;28;20197;-72
2022/08/16 08:59:07;;;;;;;2.78;2.58;;;24.40;99.90;;;;;;5033520;28;20192;-74
2022/08/16 09:01:35;;;;;;;2.75;2.50;;;24.50;99.90;;;;;;5040988;28;20181;-72
2022/08/16 09:04:02;;;;;;;3.05;2.40;;;24.60;99.40;;;;;;5039143;28;20206;-72
2022/08/16 09:06:31;;;;;;;2.30;2.20;;;24.60;99.90;;;;;;5038031;28;20242;-71
2022/08/16 09:08:58;;;;;;;2.78;2.58;;;24.70;99.90;;;;;;5044255;28;20187;-71
2022/08/16 09:11:25;;;;;;;2.88;2.67;;;24.70;99.90;;;;;;5041724;28;20260;-71
2022/08/16 09:13:51;;;;;;;2.35;2.25;;;24.90;99.90;;;;;;5036134;28;20722;-71
2022/08/16 09:16:17;;;;;;;2.50;2.30;;;25.10;98.10;;;;;;5045746;28;20585;-71
2022/08/16 09:18:44;;;;;;;4.13;2.58;;;25.30;97.30;;;;;;5038423;28;20176;-71
2022/08/16 09:21:10;;;;;;;2.42;2.20;;;25.50;96.20;;;;;;5035241;28;20208;-70
2022/08/16 09:23:36;;;;;;;2.08;1.95;;;26.80;96.30;;;;;;5038988;28;20181;-71
2022/08/16 09:26:03;;;;;;;2.58;2.25;;;29.10;91.30;;;;;;5045007;28;20585;-70
2022/08/16 09:28:29;;;;;;;2.38;2.28;;;31.60;79.40;;;;;;5041684;28;20169;-73
2022/08/16 09:30:55;;;;;;;2.33;2.13;;;33.80;67.30;;;;;;5045776;28;20534;-69
2022/08/16 09:33:20;;;;;;;2.45;2.35;;;35.10;59.40;;;;;;5041383;28;20545;-70
2022/08/16 09:35:48;;;;;;;3.28;2.20;;;36.40;55.00;;;;;;5028996;28;20195;-69
2022/08/16 09:38:14;;;;;;;3.47;2.10;;;37.20;52.70;;;;;;5034964;28;20198;-70
2022/08/16 09:40:48;;;;;;;1.98;1.88;;;37.50;52.60;;;;;;5022379;28;20185;-74
2022/08/16 09:43:19;;;;;;;2.25;2.10;;;38.10;51.30;;;;;;5027677;28;20187;-73
2022/08/16 09:45:45;;;;;;;1.95;1.85;;;39.20;48.80;;;;;;5030762;28;20199;-73
2022/08/16 09:48:13;;;;;;;1.88;1.77;;;40.10;47.30;;;;;;5022950;28;20188;-70
2022/08/16 09:50:40;;;;;;;1.80;1.70;;;40.60;45.90;;;;;;5030922;28;20187;-70
2022/08/16 09:53:17;;;;;;;2.28;2.17;;;40.90;44.60;;;;;;5044498;28;20190;-71
2022/08/16 09:55:48;;;;;;;2.33;1.88;;;40.80;43.60;;;;;;5040244;28;20217;-72
2022/08/16 09:58:14;;;;;;;3.38;1.95;;;40.20;44.30;;;;;;5029241;28;20681;-68
2022/08/16 10:00:40;;;;;;;1.70;1.70;;;39.90;44.40;;;;;;5027741;28;20184;-72
2022/08/16 10:03:06;;;;;;;1.90;1.80;;;40.50;43.20;;;;;;5026739;28;20553;-74
2022/08/16 10:05:35;;;;;;;1.92;1.83;;;41.30;42.00;;;;;;5022451;28;20204;-74
2022/08/16 10:08:06;;;;;;;1.88;1.77;;;42.00;40.90;;;;;;5027076;28;20204;-74
2022/08/16 10:10:33;;;;;;;2.28;2.05;;;42.50;40.70;;;;;;5037837;28;20191;-74
2022/08/16 10:13:11;;;;;;;3.15;1.75;;;42.00;41.20;;;;;;5036085;28;20195;-74
2022/08/16 10:15:38;;;;;;;1.60;1.60;;;42.30;40.40;;;;;;5034860;28;20192;-74
2022/08/16 10:18:07;;;;;;;1.98;1.88;;;42.10;39.90;;;;;;5033043;28;20791;-72
2022/08/16 10:20:37;;;;;;;2.08;1.88;;;41.30;40.50;;;;;;5030136;28;20172;-73
2022/08/16 10:23:05;;;;;;;1.95;1.80;;;40.30;41.20;;;;;;5029135;28;20272;-72
2022/08/16 10:25:32;;;;;;;1.85;1.75;;;38.40;43.80;;;;;;5028830;28;20207;-74
2022/08/16 10:27:59;;;;;;;1.95;1.85;;;36.50;47.30;;;;;;5038862;28;20195;-71
2022/08/16 10:30:24;;;;;;;1.70;1.60;;;35.00;48.00;;;;;;5031914;28;20179;-71
2022/08/16 10:32:50;;;;;;;2.08;1.90;;;35.00;49.80;;;;;;5036586;28;20180;-72
2022/08/16 10:35:16;;;;;;;2.17;1.77;;;36.80;48.30;;;;;;5031775;28;20180;-72
2022/08/16 10:37:41;;;;;;;1.73;1.63;;;39.40;43.50;;;;;;5031124;28;20482;-72
2022/08/16 10:40:09;;;;;;;2.20;2.10;;;40.90;42.00;;;;;;5031495;28;20631;-72
2022/08/16 10:42:34;;;;;;;1.70;1.60;;;41.90;40.80;;;;;;5037528;28;20259;-72
2022/08/16 10:45:01;;;;;;;1.80;1.70;;;43.30;38.30;;;;;;5034722;28;20266;-72
2022/08/16 10:47:28;;;;;;;2.15;2.00;;;43.40;39.00;;;;;;5037769;28;20195;-72
2022/08/16 10:49:54;;;;;;;1.70;1.60;;;43.80;37.10;;;;;;5041935;28;20202;-74
2022/08/16 10:52:21;;;;;;;2.10;1.90;;;43.40;37.40;;;;;;5035878;28;20176;-71
2022/08/16 10:54:47;;;;;;;1.70;1.60;;;43.60;37.50;;;;;;5042606;28;20233;-71
2022/08/16 10:57:13;;;;;;;1.92;1.83;;;43.60;37.50;;;;;;5037586;28;20200;-69
2022/08/16 10:59:40;;;;;;;2.20;1.73;;;42.90;38.10;;;;;;5041671;28;20206;-71
2022/08/16 11:02:08;;;;;;;1.75;1.50;;;43.10;38.00;;;;;;5037472;28;20195;-71
2022/08/16 11:04:34;;;;;;;1.88;1.77;;;43.60;37.20;;;;;;5022104;28;20191;-71
2022/08/16 11:07:00;;;;;;;2.10;1.88;;;41.70;39.00;;;;;;5028568;28;20219;-71
2022/08/16 11:09:26;;;;;;;3.25;1.80;;;40.10;40.40;;;;;;5031255;28;20176;-71
2022/08/16 11:11:51;;;;;;;2.45;2.03;;;38.20;43.80;;;;;;5034752;28;20176;-70
2022/08/16 11:14:17;;;;;;;2.30;1.70;;;37.30;45.20;;;;;;5032857;28;20232;-71
2022/08/16 11:16:43;;;;;;;2.13;1.80;;;37.50;43.80;;;;;;5046216;28;20199;-71
2022/08/16 11:19:09;;;;;;;2.08;1.98;;;39.20;42.40;;;;;;5026778;28;20179;-71
2022/08/16 11:21:35;;;;;;;2.00;1.88;;;39.50;42.00;;;;;;5032352;28;20176;-71
2022/08/16 11:24:02;;;;;;;2.13;1.90;;;40.40;41.50;;;;;;5036570;28;20551;-71
2022/08/16 11:26:28;;;;;;;1.83;1.73;;;41.70;40.10;;;;;;5038385;28;20520;-71
2022/08/16 11:28:56;;;;;;;2.83;1.90;;;43.30;38.90;;;;;;5039220;28;20184;-71
2022/08/16 11:31:24;;;;;;;1.60;1.50;;;44.50;36.90;;;;;;5038049;28;20173;-72
2022/08/16 11:33:50;;;;;;;1.75;1.67;;;45.50;35.30;;;;;;5035304;28;20180;-72
2022/08/16 11:36:16;;;;;;;2.03;1.85;;;45.00;34.60;;;;;;5019384;28;20287;-72
2022/08/16 11:38:42;;;;;;;2.13;1.80;;;44.40;35.80;;;;;;5027662;28;20172;-71
2022/08/16 11:41:07;;;;;;;1.90;1.70;;;43.40;36.30;;;;;;5036939;28;20186;-71
2022/08/16 11:43:36;;;;;;;2.05;1.95;;;42.50;36.90;;;;;;5039858;28;20627;-71
2022/08/16 11:46:06;;;;;;;3.72;2.13;;;40.80;38.90;;;;;;5037411;28;20838;-72
2022/08/16 11:48:33;;;;;;;1.60;1.50;;;40.90;39.70;;;;;;5041851;28;20316;-71
2022/08/16 11:51:00;;;;;;;1.77;1.67;;;42.20;37.80;;;;;;5038993;28;20176;-71
2022/08/16 11:53:28;;;;;;;1.70;1.60;;;43.50;36.60;;;;;;5035514;28;20202;-70
2022/08/16 11:55:54;;;;;;;1.92;1.60;;;44.00;35.00;;;;;;5026985;28;20194;-69
2022/08/16 11:58:25;;;;;;;2.28;1.45;;;42.90;36.00;;;;;;5040434;28;20309;-69
2022/08/16 12:00:52;;;;;;;1.70;1.60;;;42.40;37.20;;;;;;5027896;28;20246;-70
2022/08/16 12:03:19;;;;;;;1.83;1.73;;;42.90;37.90;;;;;;5027458;28;20208;-70
2022/08/16 12:05:46;;;;;;;1.60;1.60;;;43.10;37.40;;;;;;5033306;28;20199;-72
2022/08/16 12:08:13;;;;;;;2.15;1.77;;;43.40;36.40;;;;;;5036858;28;20267;-69
2022/08/16 12:10:40;;;;;;;1.40;1.40;;;43.20;35.60;;;;;;5033234;28;20176;-70
2022/08/16 12:13:08;;;;;;;1.52;1.38;;;43.70;34.70;;;;;;5035561;28;20192;-70
2022/08/16 12:15:34;;;;;;;1.60;1.48;;;43.90;34.60;;;;;;5031711;28;20639;-70
2022/08/16 12:18:01;;;;;;;1.20;1.20;;;43.90;35.30;;;;;;5034172;28;20203;-70
2022/08/16 12:20:29;;;;;;;1.65;1.55;;;44.30;33.90;;;;;;5039100;28;20596;-70
2022/08/16 12:22:56;;;;;;;1.65;1.55;;;44.40;34.50;;;;;;5033481;28;20191;-71
2022/08/16 12:25:24;;;;;;;1.33;1.23;;;44.00;34.20;;;;;;5026345;28;20251;-71
2022/08/16 12:27:50;;;;;;;1.80;1.70;;;43.60;34.40;;;;;;5023611;28;20659;-70
2022/08/16 12:30:20;;;;;;;1.80;1.70;;;43.20;35.00;;;;;;5030911;28;20188;-70
2022/08/16 12:32:45;;;;;;;1.73;1.63;;;42.70;35.50;;;;;;5044453;28;20176;-71
2022/08/16 12:35:17;;;;;;;1.73;1.60;;;42.20;35.20;;;;;;5019566;28;20231;-70
2022/08/16 12:37:44;;;;;;;1.98;1.50;;;41.30;36.20;;;;;;5029497;28;20207;-71
2022/08/16 12:40:17;;;;;;;1.52;1.42;;;41.30;36.30;;;;;;5033684;28;20222;-71
2022/08/16 12:42:42;;;;;;;1.70;1.60;;;41.20;36.20;;;;;;5032029;28;20176;-70
2022/08/16 12:45:11;;;;;;;1.92;1.52;;;41.10;36.00;;;;;;5023754;28;20559;-70
2022/08/16 12:50:21;;;;;;;1.90;1.80;;;39.50;37.60;;;;;;5033684;28;20191;-70